This is the latest recevied weather packets stored in our database for station/object KF0JJO. If no packets are shown the sender has not sent any weather packets the latest 1 day(s).
| Time | Temp. | Humidity | Pressure | Rain* | Wind** | Luminosity | Snow |
|---|---|---|---|---|---|---|---|
| 1836274838 | 17.78° C | 97% | 1045.9 hPa | 0 mm | 0 m/s | 0 W/m² | - |
| 1836274536 | 18.33° C | 97% | 1045.8 hPa | 0 mm | 0 m/s | 0 W/m² | - |
| 1836274389 | 17.78° C | 97% | 1046 hPa | 0 mm | 0 m/s | 0 W/m² | - |
| 1836274235 | 18.33° C | 97% | 1046 hPa | 0 mm | 0 m/s | 0 W/m² | - |
| 1836273934 | 18.33° C | 97% | 1046 hPa | 0 mm | 0 m/s | 0 W/m² | - |
| 1778040377 | 5° C | 47% | 1044.5 hPa | 0 mm | 0 m/s | 0 W/m² | - |
| 1778040074 | 5.56° C | 47% | 1044.7 hPa | 0 mm | 0 m/s | 0 W/m² | - |
| 1778039771 | 5.56° C | 47% | 1044.6 hPa | 0 mm | 0.45 m/s, 31° | 0 W/m² | - |
| 1778039468 | 5.56° C | 47% | 1044.6 hPa | 0 mm | 0 m/s | 0 W/m² | - |
| 1778039165 | 5.56° C | 47% | 1044.8 hPa | 0 mm | 0 m/s | 0 W/m² | - |
| 1778038862 | 5.56° C | 46% | 1044.6 hPa | 0 mm | 0 m/s | 0 W/m² | - |
| 1778038559 | 5.56° C | 46% | 1044.6 hPa | 0 mm | 0.45 m/s, 182° | 0 W/m² | - |
| 1778038256 | 5.56° C | 46% | 1044.4 hPa | 0 mm | 0 m/s | 0 W/m² | - |
| 1778037953 | 5.56° C | 46% | 1044.3 hPa | 0 mm | 0 m/s | 0 W/m² | - |
| 1778037650 | 5.56° C | 47% | 1044.3 hPa | 0 mm | 0.45 m/s, 27° | 0 W/m² | - |
| 1778037348 | 6.11° C | 46% | 1044.4 hPa | 0 mm | 0.45 m/s, 35° | 0 W/m² | - |
| 1778037044 | 6.11° C | 46% | 1044.4 hPa | 0 mm | 0.45 m/s, 53° | 0 W/m² | - |
| 1778036743 | 6.11° C | 46% | 1044.3 hPa | 0 mm | 0 m/s | 0 W/m² | - |
| 1778036439 | 6.11° C | 46% | 1044.3 hPa | 0 mm | 0 m/s | 0 W/m² | - |
| 1778036136 | 6.11° C | 45% | 1044.2 hPa | 0 mm | 0 m/s | 0 W/m² | - |
| 1778035832 | 6.67° C | 44% | 1044.2 hPa | 0 mm | 1.34 m/s, 294° | 0 W/m² | - |
| 1778035530 | 6.67° C | 44% | 1043.9 hPa | 0 mm | 0 m/s | 0 W/m² | - |
| 1778035226 | 6.67° C | 44% | 1043.8 hPa | 0 mm | 0 m/s | 0 W/m² | - |
| 1778034922 | 6.67° C | 44% | 1043.9 hPa | 0 mm | 0 m/s | 0 W/m² | - |
| 1778034620 | 6.67° C | 43% | 1043.8 hPa | 0 mm | 0.45 m/s, 29° | 0 W/m² | - |
* Rain latest hour (hover to see other rain measurements)
** Current wind speed in m/s (hover to see current wind gust speed)